sensor_id;sensor_type;location;lat;lon;timestamp;P1;durP1;ratioP1;P2;durP2;ratioP2
40150;SDS011;25866;52.420;10.640;2023-01-15T00:01:05;3.17;;;0.80;;
40150;SDS011;25866;52.420;10.640;2023-01-15T00:03:41;0.60;;;0.60;;
40150;SDS011;25866;52.420;10.640;2023-01-15T00:06:07;0.77;;;0.60;;
40150;SDS011;25866;52.420;10.640;2023-01-15T00:08:33;0.65;;;0.60;;
40150;SDS011;25866;52.420;10.640;2023-01-15T00:11:02;0.50;;;0.50;;
40150;SDS011;25866;52.420;10.640;2023-01-15T00:13:28;0.93;;;0.53;;
40150;SDS011;25866;52.420;10.640;2023-01-15T00:16:01;3.13;;;0.57;;
40150;SDS011;25866;52.420;10.640;2023-01-15T00:18:30;0.60;;;0.53;;
40150;SDS011;25866;52.420;10.640;2023-01-15T00:21:04;0.50;;;0.50;;
40150;SDS011;25866;52.420;10.640;2023-01-15T00:23:31;0.50;;;0.50;;
40150;SDS011;25866;52.420;10.640;2023-01-15T00:26:17;3.77;;;0.50;;
40150;SDS011;25866;52.420;10.640;2023-01-15T00:29:04;0.60;;;0.50;;
40150;SDS011;25866;52.420;10.640;2023-01-15T00:31:32;0.80;;;0.43;;
40150;SDS011;25866;52.420;10.640;2023-01-15T00:33:59;0.98;;;0.60;;
40150;SDS011;25866;52.420;10.640;2023-01-15T00:36:27;0.87;;;0.50;;
40150;SDS011;25866;52.420;10.640;2023-01-15T00:38:53;1.27;;;0.40;;
40150;SDS011;25866;52.420;10.640;2023-01-15T00:41:18;0.68;;;0.40;;
40150;SDS011;25866;52.420;10.640;2023-01-15T00:43:44;0.43;;;0.37;;
40150;SDS011;25866;52.420;10.640;2023-01-15T00:46:10;1.60;;;0.50;;
40150;SDS011;25866;52.420;10.640;2023-01-15T00:48:36;0.40;;;0.40;;
40150;SDS011;25866;52.420;10.640;2023-01-15T00:51:03;3.30;;;0.70;;
40150;SDS011;25866;52.420;10.640;2023-01-15T00:53:29;1.23;;;0.60;;
40150;SDS011;25866;52.420;10.640;2023-01-15T00:55:55;1.13;;;0.40;;
40150;SDS011;25866;52.420;10.640;2023-01-15T00:58:21;1.48;;;0.57;;
40150;SDS011;25866;52.420;10.640;2023-01-15T01:00:54;0.53;;;0.40;;
40150;SDS011;25866;52.420;10.640;2023-01-15T01:03:21;0.95;;;0.50;;
40150;SDS011;25866;52.420;10.640;2023-01-15T01:05:47;1.15;;;0.50;;
40150;SDS011;25866;52.420;10.640;2023-01-15T01:08:14;1.37;;;0.60;;
40150;SDS011;25866;52.420;10.640;2023-01-15T01:10:40;3.83;;;1.00;;
40150;SDS011;25866;52.420;10.640;2023-01-15T01:13:05;1.43;;;0.50;;
40150;SDS011;25866;52.420;10.640;2023-01-15T01:15:35;0.93;;;0.50;;
40150;SDS011;25866;52.420;10.640;2023-01-15T01:18:02;1.10;;;0.50;;
40150;SDS011;25866;52.420;10.640;2023-01-15T01:20:29;1.30;;;0.47;;
40150;SDS011;25866;52.420;10.640;2023-01-15T01:22:55;0.53;;;0.37;;
40150;SDS011;25866;52.420;10.640;2023-01-15T01:25:21;3.17;;;0.50;;
40150;SDS011;25866;52.420;10.640;2023-01-15T01:27:47;2.53;;;0.50;;
40150;SDS011;25866;52.420;10.640;2023-01-15T01:30:13;2.33;;;0.50;;
40150;SDS011;25866;52.420;10.640;2023-01-15T01:32:39;1.33;;;0.50;;
40150;SDS011;25866;52.420;10.640;2023-01-15T01:35:08;1.03;;;0.30;;
40150;SDS011;25866;52.420;10.640;2023-01-15T01:37:34;1.67;;;0.50;;
40150;SDS011;25866;52.420;10.640;2023-01-15T01:40:00;1.00;;;0.40;;
40150;SDS011;25866;52.420;10.640;2023-01-15T01:42:25;2.20;;;0.73;;
40150;SDS011;25866;52.420;10.640;2023-01-15T01:47:28;0.93;;;0.43;;
40150;SDS011;25866;52.420;10.640;2023-01-15T01:50:04;1.70;;;0.43;;
40150;SDS011;25866;52.420;10.640;2023-01-15T01:52:44;1.60;;;0.57;;
40150;SDS011;25866;52.420;10.640;2023-01-15T01:55:24;3.07;;;0.50;;
40150;SDS011;25866;52.420;10.640;2023-01-15T01:57:53;0.77;;;0.40;;
40150;SDS011;25866;52.420;10.640;2023-01-15T02:00:22;1.50;;;0.30;;
40150;SDS011;25866;52.420;10.640;2023-01-15T02:02:49;1.43;;;0.40;;
40150;SDS011;25866;52.420;10.640;2023-01-15T02:05:32;2.30;;;0.50;;
40150;SDS011;25866;52.420;10.640;2023-01-15T02:08:03;0.77;;;0.40;;
40150;SDS011;25866;52.420;10.640;2023-01-15T02:10:30;3.37;;;0.40;;
40150;SDS011;25866;52.420;10.640;2023-01-15T02:13:04;2.27;;;0.63;;
40150;SDS011;25866;52.420;10.640;2023-01-15T02:15:54;0.70;;;0.30;;
40150;SDS011;25866;52.420;10.640;2023-01-15T02:24:15;0.60;;;0.30;;
40150;SDS011;25866;52.420;10.640;2023-01-15T02:27:13;4.40;;;0.50;;
40150;SDS011;25866;52.420;10.640;2023-01-15T02:29:49;2.83;;;0.67;;
40150;SDS011;25866;52.420;10.640;2023-01-15T02:37:53;1.37;;;0.40;;
40150;SDS011;25866;52.420;10.640;2023-01-15T02:40:23;0.93;;;0.40;;
40150;SDS011;25866;52.420;10.640;2023-01-15T02:42:50;0.73;;;0.33;;
40150;SDS011;25866;52.420;10.640;2023-01-15T02:45:19;3.90;;;0.40;;
40150;SDS011;25866;52.420;10.640;2023-01-15T02:47:54;1.43;;;0.47;;
40150;SDS011;25866;52.420;10.640;2023-01-15T02:50:26;3.00;;;0.40;;
40150;SDS011;25866;52.420;10.640;2023-01-15T02:52:56;1.23;;;0.40;;
40150;SDS011;25866;52.420;10.640;2023-01-15T02:55:27;2.83;;;0.30;;
40150;SDS011;25866;52.420;10.640;2023-01-15T02:57:56;0.30;;;0.20;;
40150;SDS011;25866;52.420;10.640;2023-01-15T03:00:25;1.17;;;0.47;;
40150;SDS011;25866;52.420;10.640;2023-01-15T03:03:00;2.47;;;0.50;;
40150;SDS011;25866;52.420;10.640;2023-01-15T03:05:44;0.37;;;0.30;;
40150;SDS011;25866;52.420;10.640;2023-01-15T03:08:15;1.83;;;0.80;;
40150;SDS011;25866;52.420;10.640;2023-01-15T03:10:49;0.30;;;0.23;;
40150;SDS011;25866;52.420;10.640;2023-01-15T03:16:32;1.07;;;0.43;;
40150;SDS011;25866;52.420;10.640;2023-01-15T03:19:11;0.50;;;0.30;;
40150;SDS011;25866;52.420;10.640;2023-01-15T03:27:06;0.57;;;0.27;;
40150;SDS011;25866;52.420;10.640;2023-01-15T03:29:33;0.23;;;0.20;;
40150;SDS011;25866;52.420;10.640;2023-01-15T03:32:03;0.73;;;0.30;;
40150;SDS011;25866;52.420;10.640;2023-01-15T03:34:37;1.90;;;0.30;;
40150;SDS011;25866;52.420;10.640;2023-01-15T03:37:22;2.00;;;0.20;;
40150;SDS011;25866;52.420;10.640;2023-01-15T03:39:50;2.00;;;0.50;;
40150;SDS011;25866;52.420;10.640;2023-01-15T03:42:43;2.13;;;0.43;;
40150;SDS011;25866;52.420;10.640;2023-01-15T03:45:38;0.90;;;0.50;;
40150;SDS011;25866;52.420;10.640;2023-01-15T03:48:13;0.30;;;0.30;;
40150;SDS011;25866;52.420;10.640;2023-01-15T03:50:54;0.47;;;0.40;;
40150;SDS011;25866;52.420;10.640;2023-01-15T03:53:26;2.80;;;0.30;;
40150;SDS011;25866;52.420;10.640;2023-01-15T03:56:32;0.37;;;0.20;;
40150;SDS011;25866;52.420;10.640;2023-01-15T03:59:21;0.93;;;0.30;;
40150;SDS011;25866;52.420;10.640;2023-01-15T04:01:49;0.20;;;0.20;;
40150;SDS011;25866;52.420;10.640;2023-01-15T04:04:17;0.93;;;0.40;;
40150;SDS011;25866;52.420;10.640;2023-01-15T04:06:43;0.20;;;0.20;;
40150;SDS011;25866;52.420;10.640;2023-01-15T04:09:11;0.63;;;0.20;;
40150;SDS011;25866;52.420;10.640;2023-01-15T04:11:37;0.83;;;0.20;;
40150;SDS011;25866;52.420;10.640;2023-01-15T04:14:03;0.80;;;0.30;;
40150;SDS011;25866;52.420;10.640;2023-01-15T04:16:30;0.77;;;0.40;;
40150;SDS011;25866;52.420;10.640;2023-01-15T04:18:56;0.50;;;0.30;;
40150;SDS011;25866;52.420;10.640;2023-01-15T04:21:22;1.43;;;0.50;;
40150;SDS011;25866;52.420;10.640;2023-01-15T04:23:48;1.63;;;0.43;;
40150;SDS011;25866;52.420;10.640;2023-01-15T04:26:14;0.40;;;0.20;;
40150;SDS011;25866;52.420;10.640;2023-01-15T04:28:40;2.37;;;0.50;;
40150;SDS011;25866;52.420;10.640;2023-01-15T04:31:06;2.33;;;0.30;;
40150;SDS011;25866;52.420;10.640;2023-01-15T04:33:32;0.93;;;0.50;;
40150;SDS011;25866;52.420;10.640;2023-01-15T04:35:59;0.70;;;0.30;;
40150;SDS011;25866;52.420;10.640;2023-01-15T04:38:25;3.60;;;0.30;;
40150;SDS011;25866;52.420;10.640;2023-01-15T04:40:51;1.40;;;0.40;;
40150;SDS011;25866;52.420;10.640;2023-01-15T04:43:35;0.20;;;0.20;;
40150;SDS011;25866;52.420;10.640;2023-01-15T04:46:20;2.13;;;0.40;;
40150;SDS011;25866;52.420;10.640;2023-01-15T04:48:49;1.60;;;0.40;;
40150;SDS011;25866;52.420;10.640;2023-01-15T04:51:15;0.23;;;0.20;;
40150;SDS011;25866;52.420;10.640;2023-01-15T04:53:41;1.77;;;0.50;;
40150;SDS011;25866;52.420;10.640;2023-01-15T04:56:08;0.63;;;0.27;;
40150;SDS011;25866;52.420;10.640;2023-01-15T04:58:33;0.33;;;0.30;;
40150;SDS011;25866;52.420;10.640;2023-01-15T05:00:59;0.53;;;0.40;;
40150;SDS011;25866;52.420;10.640;2023-01-15T05:03:26;1.90;;;0.40;;
40150;SDS011;25866;52.420;10.640;2023-01-15T05:05:52;2.00;;;0.47;;
40150;SDS011;25866;52.420;10.640;2023-01-15T05:08:17;2.63;;;0.40;;
40150;SDS011;25866;52.420;10.640;2023-01-15T05:10:43;2.40;;;0.40;;
40150;SDS011;25866;52.420;10.640;2023-01-15T05:13:09;0.30;;;0.30;;
40150;SDS011;25866;52.420;10.640;2023-01-15T05:15:35;4.53;;;0.40;;
40150;SDS011;25866;52.420;10.640;2023-01-15T05:18:02;2.40;;;0.30;;
40150;SDS011;25866;52.420;10.640;2023-01-15T05:20:29;1.47;;;0.50;;
40150;SDS011;25866;52.420;10.640;2023-01-15T05:22:55;5.73;;;0.40;;
40150;SDS011;25866;52.420;10.640;2023-01-15T05:25:20;1.37;;;0.40;;
40150;SDS011;25866;52.420;10.640;2023-01-15T05:27:47;0.60;;;0.30;;
40150;SDS011;25866;52.420;10.640;2023-01-15T05:30:13;2.27;;;0.40;;
40150;SDS011;25866;52.420;10.640;2023-01-15T05:32:38;1.00;;;0.50;;
40150;SDS011;25866;52.420;10.640;2023-01-15T05:35:04;2.27;;;0.60;;
40150;SDS011;25866;52.420;10.640;2023-01-15T05:37:33;0.40;;;0.30;;
40150;SDS011;25866;52.420;10.640;2023-01-15T05:39:59;4.07;;;0.50;;
40150;SDS011;25866;52.420;10.640;2023-01-15T05:42:24;1.77;;;0.40;;
40150;SDS011;25866;52.420;10.640;2023-01-15T05:44:50;2.27;;;0.47;;
40150;SDS011;25866;52.420;10.640;2023-01-15T05:47:16;0.40;;;0.40;;
40150;SDS011;25866;52.420;10.640;2023-01-15T05:49:42;2.10;;;0.50;;
40150;SDS011;25866;52.420;10.640;2023-01-15T05:52:08;0.93;;;0.40;;
40150;SDS011;25866;52.420;10.640;2023-01-15T05:54:34;2.67;;;0.50;;
40150;SDS011;25866;52.420;10.640;2023-01-15T05:57:00;0.40;;;0.40;;
40150;SDS011;25866;52.420;10.640;2023-01-15T05:59:27;1.67;;;0.60;;
40150;SDS011;25866;52.420;10.640;2023-01-15T06:01:54;0.77;;;0.40;;
40150;SDS011;25866;52.420;10.640;2023-01-15T06:04:21;1.83;;;0.60;;
40150;SDS011;25866;52.420;10.640;2023-01-15T06:06:49;0.80;;;0.47;;
40150;SDS011;25866;52.420;10.640;2023-01-15T06:09:16;1.20;;;0.60;;
40150;SDS011;25866;52.420;10.640;2023-01-15T06:11:43;2.10;;;0.60;;
40150;SDS011;25866;52.420;10.640;2023-01-15T06:14:09;2.10;;;0.60;;
40150;SDS011;25866;52.420;10.640;2023-01-15T06:16:38;2.53;;;0.83;;
40150;SDS011;25866;52.420;10.640;2023-01-15T06:19:04;1.07;;;0.40;;
40150;SDS011;25866;52.420;10.640;2023-01-15T06:21:31;3.07;;;0.70;;
40150;SDS011;25866;52.420;10.640;2023-01-15T06:23:58;3.47;;;0.53;;
40150;SDS011;25866;52.420;10.640;2023-01-15T06:26:24;1.53;;;0.50;;
40150;SDS011;25866;52.420;10.640;2023-01-15T06:28:50;2.90;;;0.60;;
40150;SDS011;25866;52.420;10.640;2023-01-15T06:31:17;1.33;;;0.60;;
40150;SDS011;25866;52.420;10.640;2023-01-15T06:33:45;2.37;;;0.50;;
40150;SDS011;25866;52.420;10.640;2023-01-15T06:36:15;2.60;;;0.60;;
40150;SDS011;25866;52.420;10.640;2023-01-15T06:38:45;2.47;;;0.80;;
40150;SDS011;25866;52.420;10.640;2023-01-15T06:41:15;2.43;;;0.70;;
40150;SDS011;25866;52.420;10.640;2023-01-15T06:44:01;3.07;;;0.63;;
40150;SDS011;25866;52.420;10.640;2023-01-15T06:46:46;1.97;;;0.77;;
40150;SDS011;25866;52.420;10.640;2023-01-15T06:49:34;3.40;;;0.63;;
40150;SDS011;25866;52.420;10.640;2023-01-15T06:52:01;2.20;;;0.77;;
40150;SDS011;25866;52.420;10.640;2023-01-15T06:54:27;2.63;;;0.80;;
40150;SDS011;25866;52.420;10.640;2023-01-15T06:56:54;3.67;;;0.70;;
40150;SDS011;25866;52.420;10.640;2023-01-15T06:59:20;2.70;;;0.90;;
40150;SDS011;25866;52.420;10.640;2023-01-15T07:01:46;5.93;;;0.90;;
40150;SDS011;25866;52.420;10.640;2023-01-15T07:04:12;4.00;;;0.80;;
40150;SDS011;25866;52.420;10.640;2023-01-15T07:06:37;3.70;;;0.80;;
40150;SDS011;25866;52.420;10.640;2023-01-15T07:09:03;5.53;;;0.90;;
40150;SDS011;25866;52.420;10.640;2023-01-15T07:11:29;6.87;;;0.90;;
40150;SDS011;25866;52.420;10.640;2023-01-15T07:13:55;4.00;;;1.47;;
40150;SDS011;25866;52.420;10.640;2023-01-15T07:16:33;1.93;;;0.80;;
40150;SDS011;25866;52.420;10.640;2023-01-15T07:19:00;4.83;;;1.00;;
40150;SDS011;25866;52.420;10.640;2023-01-15T07:21:27;5.40;;;1.13;;
40150;SDS011;25866;52.420;10.640;2023-01-15T07:23:53;3.80;;;0.60;;
40150;SDS011;25866;52.420;10.640;2023-01-15T07:26:22;3.63;;;0.67;;
40150;SDS011;25866;52.420;10.640;2023-01-15T07:28:48;4.97;;;0.83;;
40150;SDS011;25866;52.420;10.640;2023-01-15T07:31:14;4.97;;;1.20;;
40150;SDS011;25866;52.420;10.640;2023-01-15T07:33:40;6.43;;;0.97;;
40150;SDS011;25866;52.420;10.640;2023-01-15T07:36:06;1.93;;;0.80;;
40150;SDS011;25866;52.420;10.640;2023-01-15T07:38:32;5.70;;;0.90;;
40150;SDS011;25866;52.420;10.640;2023-01-15T07:40:57;1.80;;;0.80;;
40150;SDS011;25866;52.420;10.640;2023-01-15T07:43:50;3.97;;;0.90;;
40150;SDS011;25866;52.420;10.640;2023-01-15T07:46:34;2.07;;;1.00;;
40150;SDS011;25866;52.420;10.640;2023-01-15T07:49:18;2.40;;;0.80;;
40150;SDS011;25866;52.420;10.640;2023-01-15T07:52:03;5.93;;;1.00;;
40150;SDS011;25866;52.420;10.640;2023-01-15T07:54:29;5.53;;;0.90;;
40150;SDS011;25866;52.420;10.640;2023-01-15T07:56:54;5.17;;;1.00;;
40150;SDS011;25866;52.420;10.640;2023-01-15T07:59:21;3.60;;;1.03;;
40150;SDS011;25866;52.420;10.640;2023-01-15T08:01:47;3.90;;;0.97;;
40150;SDS011;25866;52.420;10.640;2023-01-15T08:04:13;4.73;;;1.07;;
40150;SDS011;25866;52.420;10.640;2023-01-15T08:06:38;8.70;;;1.70;;
40150;SDS011;25866;52.420;10.640;2023-01-15T08:09:04;2.47;;;0.70;;
40150;SDS011;25866;52.420;10.640;2023-01-15T08:11:32;5.30;;;1.10;;
40150;SDS011;25866;52.420;10.640;2023-01-15T08:14:17;3.73;;;1.00;;
40150;SDS011;25866;52.420;10.640;2023-01-15T08:17:01;3.83;;;1.17;;
40150;SDS011;25866;52.420;10.640;2023-01-15T08:19:27;5.93;;;1.40;;
40150;SDS011;25866;52.420;10.640;2023-01-15T08:21:56;7.33;;;1.53;;
40150;SDS011;25866;52.420;10.640;2023-01-15T08:24:25;7.47;;;1.40;;
40150;SDS011;25866;52.420;10.640;2023-01-15T08:26:51;6.03;;;1.00;;
40150;SDS011;25866;52.420;10.640;2023-01-15T08:29:17;5.43;;;0.90;;
40150;SDS011;25866;52.420;10.640;2023-01-15T08:31:43;8.00;;;1.57;;
40150;SDS011;25866;52.420;10.640;2023-01-15T08:34:09;5.80;;;1.17;;
40150;SDS011;25866;52.420;10.640;2023-01-15T08:36:35;2.47;;;0.90;;
40150;SDS011;25866;52.420;10.640;2023-01-15T08:39:01;5.73;;;1.20;;
40150;SDS011;25866;52.420;10.640;2023-01-15T08:41:28;4.30;;;1.00;;
40150;SDS011;25866;52.420;10.640;2023-01-15T08:43:54;5.17;;;1.10;;
40150;SDS011;25866;52.420;10.640;2023-01-15T08:46:20;7.53;;;1.00;;
40150;SDS011;25866;52.420;10.640;2023-01-15T08:48:46;5.43;;;1.27;;
40150;SDS011;25866;52.420;10.640;2023-01-15T08:51:12;5.67;;;1.13;;
40150;SDS011;25866;52.420;10.640;2023-01-15T08:53:38;6.17;;;1.23;;
40150;SDS011;25866;52.420;10.640;2023-01-15T08:56:07;2.83;;;1.10;;
40150;SDS011;25866;52.420;10.640;2023-01-15T08:58:37;4.57;;;1.07;;
40150;SDS011;25866;52.420;10.640;2023-01-15T09:01:04;3.10;;;1.10;;
40150;SDS011;25866;52.420;10.640;2023-01-15T09:03:31;3.23;;;0.93;;
40150;SDS011;25866;52.420;10.640;2023-01-15T09:05:57;4.30;;;0.87;;
40150;SDS011;25866;52.420;10.640;2023-01-15T09:08:24;6.73;;;1.53;;
40150;SDS011;25866;52.420;10.640;2023-01-15T09:10:55;8.40;;;1.53;;
40150;SDS011;25866;52.420;10.640;2023-01-15T09:13:26;4.30;;;1.10;;
40150;SDS011;25866;52.420;10.640;2023-01-15T09:15:53;2.93;;;0.80;;
40150;SDS011;25866;52.420;10.640;2023-01-15T09:18:22;3.93;;;0.90;;
40150;SDS011;25866;52.420;10.640;2023-01-15T09:20:48;6.13;;;1.10;;
40150;SDS011;25866;52.420;10.640;2023-01-15T09:23:14;3.00;;;0.70;;
40150;SDS011;25866;52.420;10.640;2023-01-15T09:25:40;9.10;;;1.83;;
40150;SDS011;25866;52.420;10.640;2023-01-15T09:28:14;2.90;;;0.87;;
40150;SDS011;25866;52.420;10.640;2023-01-15T09:30:40;3.17;;;0.80;;
40150;SDS011;25866;52.420;10.640;2023-01-15T09:33:06;3.50;;;0.90;;
40150;SDS011;25866;52.420;10.640;2023-01-15T09:35:33;4.47;;;0.90;;
40150;SDS011;25866;52.420;10.640;2023-01-15T09:37:59;1.90;;;0.70;;
40150;SDS011;25866;52.420;10.640;2023-01-15T09:46:00;5.13;;;1.13;;
40150;SDS011;25866;52.420;10.640;2023-01-15T09:57:04;4.00;;;0.93;;
40150;SDS011;25866;52.420;10.640;2023-01-15T09:59:42;3.60;;;0.90;;
40150;SDS011;25866;52.420;10.640;2023-01-15T10:02:12;4.23;;;1.03;;
40150;SDS011;25866;52.420;10.640;2023-01-15T10:04:47;4.13;;;0.93;;
40150;SDS011;25866;52.420;10.640;2023-01-15T10:07:21;2.70;;;0.83;;
40150;SDS011;25866;52.420;10.640;2023-01-15T10:10:04;2.23;;;0.80;;
40150;SDS011;25866;52.420;10.640;2023-01-15T10:12:37;6.10;;;0.80;;
40150;SDS011;25866;52.420;10.640;2023-01-15T10:17:51;2.60;;;0.77;;
40150;SDS011;25866;52.420;10.640;2023-01-15T10:25:32;3.73;;;0.87;;
40150;SDS011;25866;52.420;10.640;2023-01-15T10:28:24;3.30;;;0.90;;
40150;SDS011;25866;52.420;10.640;2023-01-15T10:30:54;5.43;;;1.00;;
40150;SDS011;25866;52.420;10.640;2023-01-15T10:33:31;2.10;;;0.97;;
40150;SDS011;25866;52.420;10.640;2023-01-15T10:36:38;2.70;;;0.60;;
40150;SDS011;25866;52.420;10.640;2023-01-15T10:39:20;1.77;;;0.60;;
40150;SDS011;25866;52.420;10.640;2023-01-15T10:42:19;3.20;;;0.83;;
40150;SDS011;25866;52.420;10.640;2023-01-15T10:45:19;1.80;;;0.63;;
40150;SDS011;25866;52.420;10.640;2023-01-15T10:47:54;7.63;;;1.00;;
40150;SDS011;25866;52.420;10.640;2023-01-15T10:50:25;2.00;;;0.53;;
40150;SDS011;25866;52.420;10.640;2023-01-15T11:00:38;1.70;;;0.60;;
40150;SDS011;25866;52.420;10.640;2023-01-15T11:03:05;0.90;;;0.43;;
40150;SDS011;25866;52.420;10.640;2023-01-15T11:05:39;1.87;;;0.37;;
40150;SDS011;25866;52.420;10.640;2023-01-15T11:08:06;1.70;;;0.73;;
40150;SDS011;25866;52.420;10.640;2023-01-15T11:10:38;1.80;;;0.43;;
40150;SDS011;25866;52.420;10.640;2023-01-15T11:13:16;1.57;;;0.60;;
40150;SDS011;25866;52.420;10.640;2023-01-15T11:16:21;1.53;;;0.50;;
40150;SDS011;25866;52.420;10.640;2023-01-15T11:18:50;0.67;;;0.47;;
40150;SDS011;25866;52.420;10.640;2023-01-15T11:21:34;1.07;;;0.50;;
40150;SDS011;25866;52.420;10.640;2023-01-15T11:24:11;1.27;;;0.50;;
40150;SDS011;25866;52.420;10.640;2023-01-15T11:26:44;0.30;;;0.30;;
40150;SDS011;25866;52.420;10.640;2023-01-15T11:29:30;0.83;;;0.40;;
40150;SDS011;25866;52.420;10.640;2023-01-15T11:31:58;2.13;;;0.60;;
40150;SDS011;25866;52.420;10.640;2023-01-15T11:34:24;1.57;;;0.53;;
40150;SDS011;25866;52.420;10.640;2023-01-15T11:37:05;2.83;;;0.70;;
40150;SDS011;25866;52.420;10.640;2023-01-15T11:39:31;1.47;;;0.50;;
40150;SDS011;25866;52.420;10.640;2023-01-15T11:41:58;2.20;;;0.50;;
40150;SDS011;25866;52.420;10.640;2023-01-15T11:44:49;2.37;;;0.70;;
40150;SDS011;25866;52.420;10.640;2023-01-15T11:47:38;1.70;;;0.60;;
40150;SDS011;25866;52.420;10.640;2023-01-15T11:50:26;4.10;;;0.63;;
40150;SDS011;25866;52.420;10.640;2023-01-15T11:53:08;2.80;;;0.50;;
40150;SDS011;25866;52.420;10.640;2023-01-15T11:55:49;0.80;;;0.40;;
40150;SDS011;25866;52.420;10.640;2023-01-15T11:58:17;3.37;;;0.67;;
40150;SDS011;25866;52.420;10.640;2023-01-15T12:00:43;1.00;;;0.60;;
40150;SDS011;25866;52.420;10.640;2023-01-15T12:03:16;2.40;;;0.70;;
40150;SDS011;25866;52.420;10.640;2023-01-15T12:08:48;3.37;;;0.90;;
40150;SDS011;25866;52.420;10.640;2023-01-15T12:16:42;4.17;;;0.70;;
40150;SDS011;25866;52.420;10.640;2023-01-15T12:38:53;0.93;;;0.50;;
40150;SDS011;25866;52.420;10.640;2023-01-15T12:44:30;2.67;;;0.73;;
40150;SDS011;25866;52.420;10.640;2023-01-15T12:53:18;1.97;;;0.50;;
40150;SDS011;25866;52.420;10.640;2023-01-15T12:58:46;1.27;;;0.53;;
40150;SDS011;25866;52.420;10.640;2023-01-15T13:06:31;1.37;;;0.50;;
40150;SDS011;25866;52.420;10.640;2023-01-15T13:09:12;1.43;;;0.53;;
40150;SDS011;25866;52.420;10.640;2023-01-15T13:11:48;2.47;;;0.50;;
40150;SDS011;25866;52.420;10.640;2023-01-15T13:14:16;5.27;;;0.77;;
40150;SDS011;25866;52.420;10.640;2023-01-15T13:19:28;0.90;;;0.50;;
40150;SDS011;25866;52.420;10.640;2023-01-15T13:22:21;2.37;;;0.80;;
40150;SDS011;25866;52.420;10.640;2023-01-15T13:25:00;1.93;;;0.80;;
40150;SDS011;25866;52.420;10.640;2023-01-15T13:31:20;2.33;;;0.70;;
40150;SDS011;25866;52.420;10.640;2023-01-15T13:33:28;2.57;;;0.60;;
40150;SDS011;25866;52.420;10.640;2023-01-15T13:36:02;3.53;;;0.70;;
40150;SDS011;25866;52.420;10.640;2023-01-15T13:38:38;2.40;;;0.60;;
40150;SDS011;25866;52.420;10.640;2023-01-15T13:41:07;3.23;;;0.87;;
40150;SDS011;25866;52.420;10.640;2023-01-15T13:43:37;4.67;;;0.80;;
40150;SDS011;25866;52.420;10.640;2023-01-15T13:46:12;2.20;;;0.60;;
40150;SDS011;25866;52.420;10.640;2023-01-15T13:48:45;3.13;;;0.70;;
40150;SDS011;25866;52.420;10.640;2023-01-15T13:51:21;2.80;;;0.57;;
40150;SDS011;25866;52.420;10.640;2023-01-15T13:53:48;5.83;;;0.80;;
40150;SDS011;25866;52.420;10.640;2023-01-15T13:56:24;3.83;;;0.60;;
40150;SDS011;25866;52.420;10.640;2023-01-15T13:59:04;5.07;;;0.90;;
40150;SDS011;25866;52.420;10.640;2023-01-15T14:01:50;1.03;;;0.40;;
40150;SDS011;25866;52.420;10.640;2023-01-15T14:04:16;3.10;;;0.90;;
40150;SDS011;25866;52.420;10.640;2023-01-15T14:06:45;2.80;;;0.83;;
40150;SDS011;25866;52.420;10.640;2023-01-15T14:23:13;4.63;;;0.90;;
40150;SDS011;25866;52.420;10.640;2023-01-15T14:31:48;4.60;;;0.70;;
40150;SDS011;25866;52.420;10.640;2023-01-15T14:34:26;6.60;;;0.80;;
40150;SDS011;25866;52.420;10.640;2023-01-15T14:36:56;2.37;;;0.70;;
40150;SDS011;25866;52.420;10.640;2023-01-15T14:44:57;3.30;;;0.67;;
40150;SDS011;25866;52.420;10.640;2023-01-15T14:47:29;2.87;;;0.67;;
40150;SDS011;25866;52.420;10.640;2023-01-15T14:58:15;3.03;;;0.73;;
40150;SDS011;25866;52.420;10.640;2023-01-15T15:04:04;2.00;;;0.70;;
40150;SDS011;25866;52.420;10.640;2023-01-15T15:06:50;4.77;;;1.00;;
40150;SDS011;25866;52.420;10.640;2023-01-15T15:21:00;2.43;;;0.80;;
40150;SDS011;25866;52.420;10.640;2023-01-15T15:26:54;3.70;;;0.93;;
40150;SDS011;25866;52.420;10.640;2023-01-15T15:29:24;2.93;;;0.63;;
40150;SDS011;25866;52.420;10.640;2023-01-15T15:31:51;4.57;;;0.90;;
40150;SDS011;25866;52.420;10.640;2023-01-15T15:36:51;2.83;;;0.73;;
40150;SDS011;25866;52.420;10.640;2023-01-15T15:39:51;5.17;;;0.87;;
40150;SDS011;25866;52.420;10.640;2023-01-15T15:45:22;2.43;;;0.63;;
40150;SDS011;25866;52.420;10.640;2023-01-15T15:48:15;2.83;;;0.80;;
40150;SDS011;25866;52.420;10.640;2023-01-15T15:51:04;3.37;;;1.00;;
40150;SDS011;25866;52.420;10.640;2023-01-15T15:53:46;7.97;;;1.10;;
40150;SDS011;25866;52.420;10.640;2023-01-15T15:56:12;3.03;;;0.90;;
40150;SDS011;25866;52.420;10.640;2023-01-15T15:58:38;6.53;;;0.87;;
40150;SDS011;25866;52.420;10.640;2023-01-15T16:01:05;4.10;;;0.67;;
40150;SDS011;25866;52.420;10.640;2023-01-15T16:03:35;3.00;;;0.70;;
40150;SDS011;25866;52.420;10.640;2023-01-15T16:06:17;2.80;;;0.53;;
40150;SDS011;25866;52.420;10.640;2023-01-15T16:08:55;2.10;;;0.60;;
40150;SDS011;25866;52.420;10.640;2023-01-15T16:11:30;1.23;;;0.60;;
40150;SDS011;25866;52.420;10.640;2023-01-15T16:13:58;5.63;;;0.70;;
40150;SDS011;25866;52.420;10.640;2023-01-15T16:16:28;5.60;;;0.83;;
40150;SDS011;25866;52.420;10.640;2023-01-15T16:18:55;3.00;;;0.67;;
40150;SDS011;25866;52.420;10.640;2023-01-15T16:24:04;3.63;;;0.90;;
40150;SDS011;25866;52.420;10.640;2023-01-15T16:26:45;4.03;;;0.73;;
40150;SDS011;25866;52.420;10.640;2023-01-15T16:29:18;3.73;;;0.70;;
40150;SDS011;25866;52.420;10.640;2023-01-15T16:31:45;5.17;;;0.80;;
40150;SDS011;25866;52.420;10.640;2023-01-15T16:34:17;2.33;;;0.70;;
40150;SDS011;25866;52.420;10.640;2023-01-15T16:36:48;2.47;;;0.60;;
40150;SDS011;25866;52.420;10.640;2023-01-15T16:41:47;2.20;;;0.50;;
40150;SDS011;25866;52.420;10.640;2023-01-15T16:44:25;3.20;;;0.87;;
40150;SDS011;25866;52.420;10.640;2023-01-15T16:46:58;2.37;;;0.50;;
40150;SDS011;25866;52.420;10.640;2023-01-15T16:49:26;3.60;;;0.70;;
40150;SDS011;25866;52.420;10.640;2023-01-15T16:51:56;8.50;;;0.80;;
40150;SDS011;25866;52.420;10.640;2023-01-15T16:56:57;4.53;;;0.73;;
40150;SDS011;25866;52.420;10.640;2023-01-15T17:01:57;1.90;;;0.60;;
40150;SDS011;25866;52.420;10.640;2023-01-15T17:04:41;2.27;;;1.00;;
40150;SDS011;25866;52.420;10.640;2023-01-15T17:09:57;3.80;;;0.70;;
40150;SDS011;25866;52.420;10.640;2023-01-15T17:17:40;2.17;;;0.70;;
40150;SDS011;25866;52.420;10.640;2023-01-15T17:20:10;1.17;;;0.47;;
40150;SDS011;25866;52.420;10.640;2023-01-15T17:22:36;2.10;;;0.50;;
40150;SDS011;25866;52.420;10.640;2023-01-15T17:25:23;1.50;;;0.67;;
40150;SDS011;25866;52.420;10.640;2023-01-15T17:27:50;6.50;;;0.80;;
40150;SDS011;25866;52.420;10.640;2023-01-15T17:30:18;2.10;;;0.60;;
40150;SDS011;25866;52.420;10.640;2023-01-15T17:32:44;2.17;;;0.50;;
40150;SDS011;25866;52.420;10.640;2023-01-15T17:35:21;1.13;;;0.53;;
40150;SDS011;25866;52.420;10.640;2023-01-15T17:37:52;2.20;;;0.70;;
40150;SDS011;25866;52.420;10.640;2023-01-15T17:40:17;2.20;;;0.53;;
40150;SDS011;25866;52.420;10.640;2023-01-15T17:42:44;1.63;;;0.63;;
40150;SDS011;25866;52.420;10.640;2023-01-15T17:45:14;1.50;;;0.70;;
40150;SDS011;25866;52.420;10.640;2023-01-15T17:47:43;3.83;;;0.83;;
40150;SDS011;25866;52.420;10.640;2023-01-15T17:50:09;1.63;;;0.50;;
40150;SDS011;25866;52.420;10.640;2023-01-15T17:52:35;4.57;;;0.87;;
40150;SDS011;25866;52.420;10.640;2023-01-15T17:55:01;1.37;;;0.60;;
40150;SDS011;25866;52.420;10.640;2023-01-15T17:57:46;1.73;;;0.67;;